createdAt,value
2019-03-30T00:03:30.630Z,11.90
2019-03-30T00:06:06.794Z,11.70
2019-03-30T00:09:26.609Z,11.60
2019-03-30T00:12:51.264Z,11.60
2019-03-30T00:15:46.217Z,11.50
2019-03-30T00:19:35.051Z,11.50
2019-03-30T00:22:39.170Z,11.40
2019-03-30T00:25:24.401Z,11.40
2019-03-30T00:28:21.207Z,11.30
2019-03-30T00:32:23.421Z,11.20
2019-03-30T00:36:04.698Z,11.20
2019-03-30T00:38:36.239Z,11.10
2019-03-30T00:41:18.771Z,11.10
2019-03-30T00:44:03.171Z,11.10
2019-03-30T00:47:01.605Z,11.00
2019-03-30T00:49:48.967Z,11.00
2019-03-30T00:52:20.089Z,11.00
2019-03-30T00:55:01.110Z,11.00
2019-03-30T00:57:42.590Z,11.00
2019-03-30T01:00:18.568Z,10.90
2019-03-30T01:03:16.089Z,10.90
2019-03-30T01:05:51.096Z,10.80
2019-03-30T01:08:29.447Z,10.80
2019-03-30T01:11:09.684Z,10.70
2019-03-30T01:13:49.369Z,10.70
2019-03-30T01:16:23.530Z,10.60
2019-03-30T01:20:03.102Z,10.60
2019-03-30T01:23:17.731Z,10.50
2019-03-30T01:26:09.560Z,10.40
2019-03-30T01:28:43.812Z,10.40
2019-03-30T01:31:59.443Z,10.40
2019-03-30T01:34:47.740Z,10.30
2019-03-30T01:37:18.192Z,10.30
2019-03-30T01:39:48.875Z,10.20
2019-03-30T01:42:21.419Z,10.10
2019-03-30T01:44:52.969Z,10.10
2019-03-30T01:47:32.160Z,10.00
2019-03-30T01:50:20.385Z,10.00
2019-03-30T01:53:07.683Z,9.90
2019-03-30T01:55:43.143Z,9.90
2019-03-30T01:58:13.974Z,9.80
2019-03-30T02:00:52.742Z,9.80
2019-03-30T02:03:29.640Z,9.80
2019-03-30T02:06:13.324Z,9.70
2019-03-30T02:08:47.128Z,9.70
2019-03-30T02:11:18.064Z,9.80
2019-03-30T02:13:56.430Z,9.80
2019-03-30T02:16:29.845Z,9.80
2019-03-30T02:19:13.127Z,9.80
2019-03-30T02:21:55.905Z,9.60
2019-03-30T02:24:39.593Z,9.60
2019-03-30T02:27:24.965Z,9.50
2019-03-30T02:30:30.234Z,9.50
2019-03-30T02:33:15.970Z,9.50
2019-03-30T02:35:48.018Z,9.50
2019-03-30T02:38:21.104Z,9.40
2019-03-30T02:40:55.004Z,9.30
2019-03-30T02:43:25.904Z,9.30
2019-03-30T02:45:56.529Z,9.20
2019-03-30T02:48:31.018Z,9.30
2019-03-30T02:51:01.977Z,9.30
2019-03-30T02:53:33.605Z,9.30
2019-03-30T02:56:03.997Z,9.20
2019-03-30T02:58:36.493Z,9.20
2019-03-30T03:01:30.788Z,9.10
2019-03-30T03:04:27.304Z,9.00
2019-03-30T03:07:02.214Z,9.00
2019-03-30T03:09:35.155Z,8.90
2019-03-30T03:12:06.022Z,8.90
2019-03-30T03:14:36.469Z,8.80
2019-03-30T03:17:10.849Z,8.80
2019-03-30T03:19:47.816Z,8.80
2019-03-30T03:22:21.292Z,8.70
2019-03-30T03:25:17.434Z,8.70
2019-03-30T03:28:26.042Z,8.70
2019-03-30T03:34:48.133Z,8.70
2019-03-30T03:37:46.619Z,8.70
2019-03-30T03:40:22.822Z,8.70
2019-03-30T03:42:56.942Z,8.60
2019-03-30T03:45:27.390Z,8.60
2019-03-30T03:47:57.822Z,8.70
2019-03-30T03:50:49.904Z,8.60
2019-03-30T03:53:20.955Z,8.60
2019-03-30T03:56:00.086Z,8.60
2019-03-30T03:58:33.964Z,8.60
2019-03-30T04:01:07.756Z,8.60
2019-03-30T04:03:42.787Z,8.60
2019-03-30T04:06:13.821Z,8.60
2019-03-30T04:08:46.939Z,8.50
2019-03-30T04:11:20.590Z,8.50
2019-03-30T04:13:58.563Z,8.50
2019-03-30T04:16:31.665Z,8.50
2019-03-30T04:19:04.276Z,8.50
2019-03-30T04:21:44.386Z,8.40
2019-03-30T04:24:09.556Z,8.30
2019-03-30T04:26:46.470Z,8.20
2019-03-30T04:29:16.829Z,8.10
2019-03-30T04:31:47.190Z,8.10
2019-03-30T04:34:17.783Z,8.10
2019-03-30T04:36:52.305Z,8.10
2019-03-30T04:39:22.495Z,8.10
2019-03-30T04:41:52.834Z,8.10
2019-03-30T04:44:50.946Z,8.10
2019-03-30T04:47:38.085Z,8.10
2019-03-30T04:50:09.005Z,8.10
2019-03-30T04:52:40.953Z,8.00
2019-03-30T04:55:11.780Z,8.00
2019-03-30T04:57:42.246Z,8.00
2019-03-30T05:00:12.681Z,7.90
2019-03-30T05:02:50.524Z,7.90
2019-03-30T05:05:29.735Z,7.80
2019-03-30T05:08:18.034Z,7.90
2019-03-30T05:10:45.970Z,7.90
2019-03-30T05:13:16.878Z,8.00
2019-03-30T05:15:47.313Z,8.00
2019-03-30T05:18:17.803Z,8.00
2019-03-30T05:20:49.843Z,8.10
2019-03-30T05:23:20.369Z,8.10
2019-03-30T05:25:53.605Z,8.00
2019-03-30T05:28:23.802Z,8.10
2019-03-30T05:30:54.202Z,8.10
2019-03-30T05:33:24.884Z,8.10
2019-03-30T05:35:55.010Z,8.10
2019-03-30T05:38:25.390Z,8.10
2019-03-30T05:40:56.269Z,8.20
2019-03-30T05:43:29.487Z,8.20
2019-03-30T05:46:00.710Z,8.20
2019-03-30T05:48:31.332Z,8.20
2019-03-30T05:51:02.099Z,8.20
2019-03-30T05:53:32.296Z,8.20
2019-03-30T05:56:05.569Z,8.20
2019-03-30T05:58:35.772Z,8.20
2019-03-30T06:01:06.256Z,8.10
2019-03-30T06:03:36.616Z,8.20
2019-03-30T06:06:06.927Z,8.10
2019-03-30T06:08:37.426Z,8.10
2019-03-30T06:11:10.581Z,8.10
2019-03-30T06:13:41.542Z,8.10
2019-03-30T06:16:12.111Z,8.10
2019-03-30T06:18:42.358Z,8.20
2019-03-30T06:21:12.761Z,8.30
2019-03-30T06:23:43.271Z,8.30
2019-03-30T06:26:13.916Z,8.40
2019-03-30T06:28:44.117Z,8.40
2019-03-30T06:31:14.563Z,8.70
2019-03-30T06:33:46.182Z,8.90
2019-03-30T06:36:16.552Z,9.40
2019-03-30T06:38:47.900Z,10.20
2019-03-30T06:41:19.105Z,10.50
2019-03-30T06:43:51.118Z,10.10
2019-03-30T06:46:21.404Z,9.80
2019-03-30T06:48:51.588Z,9.80
2019-03-30T06:51:23.273Z,9.70
2019-03-30T06:53:55.371Z,9.70
2019-03-30T06:56:26.275Z,9.60
2019-03-30T06:58:57.160Z,9.60
2019-03-30T07:01:28.133Z,9.70
2019-03-30T07:03:58.288Z,9.80
2019-03-30T07:06:30.055Z,10.00
2019-03-30T07:09:02.498Z,10.00
2019-03-30T07:11:35.863Z,9.80
2019-03-30T07:14:09.127Z,10.10
2019-03-30T07:16:41.614Z,10.30
2019-03-30T07:19:13.212Z,10.40
2019-03-30T07:21:43.981Z,10.40
2019-03-30T07:24:14.540Z,10.50
2019-03-30T07:26:46.142Z,10.70
2019-03-30T07:29:19.071Z,10.80
2019-03-30T07:31:49.492Z,10.80
2019-03-30T07:34:20.112Z,10.90
2019-03-30T07:36:55.185Z,10.90
2019-03-30T07:39:26.002Z,10.90
2019-03-30T07:41:56.234Z,11.00
2019-03-30T07:44:27.108Z,11.10
2019-03-30T07:46:59.033Z,11.30
2019-03-30T07:49:31.030Z,11.40
2019-03-30T07:52:01.986Z,11.40
2019-03-30T07:54:39.091Z,11.50
2019-03-30T07:57:16.843Z,11.50
2019-03-30T07:59:42.372Z,11.40
2019-03-30T08:02:22.675Z,11.60
2019-03-30T08:05:05.175Z,11.80
2019-03-30T08:07:35.324Z,12.00
2019-03-30T08:10:07.216Z,12.20
2019-03-30T08:12:41.167Z,12.40
2019-03-30T08:15:14.310Z,12.50
2019-03-30T08:17:51.929Z,12.70
2019-03-30T08:20:38.622Z,12.90
2019-03-30T08:23:16.104Z,13.00
2019-03-30T08:25:49.168Z,13.00
2019-03-30T08:28:24.194Z,13.10
2019-03-30T08:30:55.167Z,13.20
2019-03-30T08:33:31.433Z,13.40
2019-03-30T08:36:02.200Z,13.60
2019-03-30T08:38:32.494Z,13.80
2019-03-30T08:41:03.181Z,14.10
2019-03-30T08:43:36.829Z,14.70
2019-03-30T08:46:12.421Z,15.60
2019-03-30T08:48:44.396Z,16.70
2019-03-30T08:51:20.802Z,17.70
2019-03-30T08:53:54.779Z,18.80
2019-03-30T08:56:31.395Z,20.40
2019-03-30T08:59:02.105Z,21.00
2019-03-30T09:01:32.399Z,21.30
2019-03-30T09:04:02.997Z,21.40
2019-03-30T09:06:33.621Z,22.30
2019-03-30T09:09:05.879Z,23.00
2019-03-30T09:11:36.270Z,23.30
2019-03-30T09:14:07.346Z,22.00
2019-03-30T09:16:38.191Z,22.10
2019-03-30T09:19:08.906Z,22.30
2019-03-30T09:21:40.230Z,23.00
2019-03-30T09:24:15.513Z,23.40
2019-03-30T09:26:46.421Z,22.70
2019-03-30T09:29:20.282Z,23.60
2019-03-30T09:31:50.480Z,24.50
2019-03-30T09:34:22.603Z,24.60
2019-03-30T09:36:53.478Z,24.50
2019-03-30T09:39:32.443Z,23.90
2019-03-30T09:42:05.954Z,23.00
2019-03-30T09:44:37.171Z,22.50
2019-03-30T09:47:19.064Z,22.80
2019-03-30T09:50:02.911Z,22.70
2019-03-30T09:52:35.266Z,23.10
2019-03-30T09:55:09.007Z,24.10
2019-03-30T09:57:39.385Z,24.50
2019-03-30T10:00:10.076Z,24.70
2019-03-30T10:02:43.983Z,24.20
2019-03-30T10:05:16.304Z,24.40
2019-03-30T10:07:47.704Z,25.40
2019-03-30T10:10:22.234Z,25.70
2019-03-30T10:12:52.784Z,25.50
2019-03-30T10:15:23.562Z,25.40
2019-03-30T10:17:55.203Z,25.10
2019-03-30T10:20:29.166Z,25.60
2019-03-30T10:23:00.092Z,26.00
2019-03-30T10:25:43.753Z,26.40
2019-03-30T10:28:26.051Z,26.30
2019-03-30T10:31:01.822Z,25.80
2019-03-30T10:33:40.739Z,25.40
2019-03-30T10:36:11.521Z,24.50
2019-03-30T10:38:42.041Z,24.40
2019-03-30T10:41:17.608Z,25.20
2019-03-30T10:43:53.163Z,25.40
2019-03-30T10:46:23.716Z,25.20
2019-03-30T10:49:03.964Z,24.30
2019-03-30T10:51:39.252Z,24.50
2019-03-30T10:54:11.374Z,24.00
2019-03-30T10:56:42.490Z,23.20
2019-03-30T10:59:13.452Z,22.70
2019-03-30T11:01:47.134Z,22.20
2019-03-30T11:04:18.327Z,21.60
2019-03-30T11:06:49.576Z,22.60
2019-03-30T11:09:23.324Z,22.90
2019-03-30T11:11:57.040Z,23.30
2019-03-30T11:14:27.803Z,23.10
2019-03-30T11:16:58.671Z,23.30
2019-03-30T11:19:29.345Z,23.20
2019-03-30T11:22:02.895Z,23.70
2019-03-30T11:24:34.562Z,23.90
2019-03-30T11:27:05.198Z,24.20
2019-03-30T11:29:37.281Z,23.90
2019-03-30T11:32:09.067Z,24.00
2019-03-30T11:34:45.254Z,24.60
2019-03-30T11:37:25.079Z,25.00
2019-03-30T11:39:55.690Z,24.80
2019-03-30T11:42:27.047Z,24.90
2019-03-30T11:44:58.981Z,24.80
2019-03-30T11:47:29.235Z,24.90
2019-03-30T11:50:00.019Z,25.60
2019-03-30T11:52:33.952Z,26.10
2019-03-30T11:55:22.014Z,26.50
2019-03-30T11:58:12.001Z,26.50
2019-03-30T12:00:43.097Z,26.50
2019-03-30T12:03:16.221Z,25.80
2019-03-30T12:05:49.700Z,26.20
2019-03-30T12:08:20.885Z,26.70
2019-03-30T12:10:51.628Z,25.90
2019-03-30T12:13:22.678Z,26.00
2019-03-30T12:15:57.554Z,25.70
2019-03-30T12:18:33.994Z,25.30
2019-03-30T12:21:04.528Z,26.00
2019-03-30T12:23:35.027Z,26.50
2019-03-30T12:26:08.552Z,26.10
2019-03-30T12:28:52.244Z,26.20
2019-03-30T12:31:39.307Z,26.40
2019-03-30T12:34:13.333Z,26.70
2019-03-30T12:36:55.947Z,27.10
2019-03-30T12:39:29.933Z,26.20
2019-03-30T12:42:02.103Z,25.80
2019-03-30T12:44:35.787Z,26.30
2019-03-30T12:47:10.583Z,26.20
2019-03-30T12:49:47.445Z,26.10
2019-03-30T12:52:26.586Z,26.00
2019-03-30T12:55:07.115Z,25.80
2019-03-30T12:57:38.935Z,25.80
2019-03-30T13:00:10.307Z,25.80
2019-03-30T13:02:44.261Z,26.20
2019-03-30T13:05:24.773Z,26.90
2019-03-30T13:07:59.804Z,26.70
2019-03-30T13:10:30.310Z,26.50
2019-03-30T13:13:02.850Z,26.10
2019-03-30T13:15:41.640Z,26.10
2019-03-30T13:18:35.675Z,26.00
2019-03-30T13:21:06.311Z,27.60
2019-03-30T13:23:39.955Z,28.90
2019-03-30T13:26:26.646Z,29.00
2019-03-30T13:28:52.607Z,28.10
2019-03-30T13:31:24.855Z,27.40
2019-03-30T13:33:57.825Z,27.20
2019-03-30T13:36:41.404Z,26.80
2019-03-30T13:39:17.684Z,26.40
2019-03-30T13:41:48.153Z,26.10
2019-03-30T13:44:18.884Z,26.30
2019-03-30T13:46:51.394Z,26.50
2019-03-30T13:49:23.870Z,26.60
2019-03-30T13:51:56.219Z,26.80
2019-03-30T13:54:33.641Z,27.20
2019-03-30T13:57:10.716Z,27.00
2019-03-30T13:59:49.288Z,26.50
2019-03-30T14:02:20.418Z,26.40
2019-03-30T14:04:53.892Z,26.70
2019-03-30T14:07:24.337Z,25.70
2019-03-30T14:09:57.976Z,24.10
2019-03-30T14:12:28.456Z,22.80
2019-03-30T14:15:01.746Z,21.90
2019-03-30T14:17:41.101Z,21.70
2019-03-30T14:20:14.634Z,21.40
2019-03-30T14:22:57.265Z,21.30
2019-03-30T14:25:27.297Z,21.30
2019-03-30T14:27:59.413Z,21.10
2019-03-30T14:30:30.982Z,21.10
2019-03-30T14:33:02.603Z,21.20
2019-03-30T14:35:34.603Z,21.20
2019-03-30T14:38:16.089Z,21.10
2019-03-30T14:40:58.902Z,20.70
2019-03-30T14:43:29.887Z,20.70
2019-03-30T14:46:04.888Z,20.80
2019-03-30T14:48:51.209Z,20.70
2019-03-30T14:51:31.241Z,20.80
2019-03-30T14:54:06.637Z,20.70
2019-03-30T14:56:45.696Z,20.70
2019-03-30T14:59:14.565Z,20.60
2019-03-30T15:01:47.407Z,20.70
2019-03-30T15:04:23.809Z,20.70
2019-03-30T15:07:04.220Z,20.60
2019-03-30T15:09:38.198Z,20.60
2019-03-30T15:12:09.266Z,20.60
2019-03-30T15:14:52.491Z,20.60
2019-03-30T15:17:40.289Z,20.60
2019-03-30T15:20:26.036Z,20.60
2019-03-30T15:23:01.290Z,20.40
2019-03-30T15:25:37.915Z,20.30
2019-03-30T15:28:14.445Z,20.10
2019-03-30T15:30:51.324Z,20.00
2019-03-30T15:33:28.247Z,20.00
2019-03-30T15:36:01.772Z,20.10
2019-03-30T15:38:41.875Z,20.10
2019-03-30T15:41:16.640Z,20.10
2019-03-30T15:43:51.985Z,20.00
2019-03-30T15:46:23.730Z,20.10
2019-03-30T15:48:59.461Z,20.10
2019-03-30T15:51:31.451Z,20.00
2019-03-30T15:54:07.156Z,20.10
2019-03-30T15:56:37.903Z,20.00
2019-03-30T15:59:19.279Z,19.90
2019-03-30T16:01:50.420Z,19.90
2019-03-30T16:04:20.790Z,19.90
2019-03-30T16:06:52.097Z,19.90
2019-03-30T16:09:23.438Z,20.00
2019-03-30T16:12:01.145Z,19.90
2019-03-30T16:14:32.020Z,20.00
2019-03-30T16:17:05.615Z,19.90
2019-03-30T16:19:42.604Z,19.90
2019-03-30T16:22:13.233Z,19.80
2019-03-30T16:24:54.016Z,19.80
2019-03-30T16:27:29.093Z,19.70
2019-03-30T16:30:04.615Z,19.60
2019-03-30T16:32:39.471Z,19.50
2019-03-30T16:35:20.734Z,19.50
2019-03-30T16:37:54.342Z,19.50
2019-03-30T16:40:26.014Z,19.30
2019-03-30T16:42:56.630Z,19.20
2019-03-30T16:45:31.078Z,19.10
2019-03-30T16:48:01.735Z,19.00
2019-03-30T16:50:38.530Z,19.00
2019-03-30T16:53:09.359Z,19.00
2019-03-30T16:55:43.286Z,18.90
2019-03-30T16:58:15.311Z,18.80
2019-03-30T17:00:56.154Z,18.80
2019-03-30T17:03:31.553Z,18.80
2019-03-30T17:06:03.674Z,18.70
2019-03-30T17:08:40.256Z,18.70
2019-03-30T17:11:15.438Z,18.70
2019-03-30T17:13:59.142Z,18.70
2019-03-30T17:16:30.733Z,18.70
2019-03-30T17:19:04.370Z,18.60
2019-03-30T17:21:35.429Z,18.60
2019-03-30T17:24:24.731Z,18.60
2019-03-30T17:26:59.165Z,18.50
2019-03-30T17:29:36.183Z,18.40
2019-03-30T17:32:07.127Z,18.40
2019-03-30T17:34:58.031Z,18.30
2019-03-30T17:38:02.810Z,18.20
2019-03-30T17:40:39.242Z,18.20
2019-03-30T17:43:12.176Z,18.10
2019-03-30T17:45:47.005Z,18.10
2019-03-30T17:48:28.357Z,18.00
2019-03-30T17:51:07.553Z,18.00
2019-03-30T17:53:45.883Z,17.90
2019-03-30T17:56:18.311Z,17.90
2019-03-30T17:58:59.466Z,17.80
2019-03-30T18:01:32.230Z,17.80
2019-03-30T18:04:13.082Z,17.70
2019-03-30T18:06:44.224Z,17.70
2019-03-30T18:09:18.054Z,17.60
2019-03-30T18:12:07.498Z,17.70
2019-03-30T18:14:38.933Z,17.70
2019-03-30T18:17:16.900Z,17.70
2019-03-30T18:19:54.748Z,17.70
2019-03-30T18:22:32.085Z,17.70
2019-03-30T18:25:04.179Z,17.70
2019-03-30T18:27:41.467Z,17.70
2019-03-30T18:30:23.609Z,17.70
2019-03-30T18:33:02.249Z,17.70
2019-03-30T18:35:45.076Z,17.70
2019-03-30T18:38:24.207Z,17.80
2019-03-30T18:40:55.460Z,17.70
2019-03-30T18:43:26.662Z,17.70
2019-03-30T18:46:09.495Z,17.70
2019-03-30T18:48:45.532Z,17.70
2019-03-30T18:51:19.450Z,17.70
2019-03-30T18:53:52.266Z,17.70
2019-03-30T18:56:28.111Z,17.70
2019-03-30T18:59:01.277Z,17.70
2019-03-30T19:01:50.200Z,17.60
2019-03-30T19:04:49.845Z,17.60
2019-03-30T19:07:28.016Z,17.70
2019-03-30T19:10:21.510Z,17.50
2019-03-30T19:12:55.817Z,17.50
2019-03-30T19:15:42.678Z,17.50
2019-03-30T19:18:18.775Z,17.50
2019-03-30T19:20:56.377Z,17.50
2019-03-30T19:23:33.062Z,17.60
2019-03-30T19:26:17.093Z,17.50
2019-03-30T19:29:08.616Z,17.60
2019-03-30T19:31:41.920Z,17.60
2019-03-30T19:34:28.084Z,17.60
2019-03-30T19:37:08.796Z,17.50
2019-03-30T19:39:40.370Z,17.50
2019-03-30T19:42:28.500Z,17.50
2019-03-30T19:45:02.458Z,17.40
2019-03-30T19:47:37.552Z,17.40
2019-03-30T19:50:12.367Z,17.40
2019-03-30T19:52:45.069Z,17.40
2019-03-30T19:55:16.421Z,17.30
2019-03-30T19:57:48.209Z,17.20
2019-03-30T20:00:30.059Z,17.30
2019-03-30T20:03:08.190Z,17.20
2019-03-30T20:05:44.704Z,17.00
2019-03-30T20:08:22.918Z,16.80
2019-03-30T20:10:55.621Z,16.70
2019-03-30T20:13:42.438Z,16.70
2019-03-30T20:16:14.368Z,16.70
2019-03-30T20:19:12.128Z,16.70
2019-03-30T20:21:57.158Z,16.50
2019-03-30T20:24:25.684Z,16.50
2019-03-30T20:27:02.738Z,16.50
2019-03-30T20:29:44.559Z,16.60
2019-03-30T20:32:35.750Z,16.60
2019-03-30T20:35:24.719Z,16.60
2019-03-30T20:38:34.949Z,16.40
2019-03-30T20:41:19.200Z,16.30
2019-03-30T20:44:18.642Z,16.10
2019-03-30T20:46:51.774Z,16.10
2019-03-30T20:49:35.494Z,16.10
2019-03-30T20:52:28.736Z,16.10
2019-03-30T20:55:06.884Z,16.10
2019-03-30T20:57:47.981Z,16.10
2019-03-30T21:00:42.414Z,16.10
2019-03-30T21:03:12.379Z,16.20
2019-03-30T21:06:12.169Z,16.20
2019-03-30T21:09:09.712Z,16.20
2019-03-30T21:11:59.861Z,16.10
2019-03-30T21:14:56.129Z,15.90
2019-03-30T21:17:35.476Z,15.80
2019-03-30T21:20:09.448Z,15.80
2019-03-30T21:23:05.517Z,15.80
2019-03-30T21:26:01.375Z,15.80
2019-03-30T21:28:53.516Z,15.70
2019-03-30T21:31:42.113Z,15.70
2019-03-30T21:34:42.208Z,15.70
2019-03-30T21:37:30.789Z,15.70
2019-03-30T21:40:12.368Z,15.70
2019-03-30T21:42:43.398Z,15.70
2019-03-30T21:45:30.532Z,15.60
2019-03-30T21:48:07.888Z,15.40
2019-03-30T21:50:39.226Z,15.30
2019-03-30T21:53:09.948Z,15.20
2019-03-30T21:55:49.587Z,15.20
2019-03-30T21:58:31.450Z,15.20
2019-03-30T22:01:12.503Z,15.10
2019-03-30T22:03:56.051Z,15.10
2019-03-30T22:06:51.889Z,15.10
2019-03-30T22:09:29.571Z,14.90
2019-03-30T22:12:20.108Z,14.80
2019-03-30T22:15:02.558Z,14.80
2019-03-30T22:17:54.726Z,14.90
2019-03-30T22:20:29.081Z,15.00
2019-03-30T22:23:00.452Z,15.00
2019-03-30T22:25:36.967Z,14.90
2019-03-30T22:28:23.092Z,14.80
2019-03-30T22:31:15.144Z,14.80
2019-03-30T22:33:54.911Z,14.70
2019-03-30T22:36:28.625Z,14.60
2019-03-30T22:39:01.301Z,14.50
2019-03-30T22:41:44.171Z,14.30
2019-03-30T22:44:23.962Z,14.30
2019-03-30T22:46:58.824Z,14.20
2019-03-30T22:49:34.051Z,14.00
2019-03-30T22:52:06.667Z,13.90
2019-03-30T22:54:38.576Z,14.00
2019-03-30T22:57:23.833Z,14.00
2019-03-30T23:00:03.632Z,13.90
2019-03-30T23:02:43.186Z,13.90
2019-03-30T23:05:49.364Z,13.80
2019-03-30T23:08:39.915Z,13.80
2019-03-30T23:11:23.460Z,13.70
2019-03-30T23:13:58.752Z,13.70
2019-03-30T23:16:35.097Z,13.60
2019-03-30T23:19:09.110Z,13.60
2019-03-30T23:21:49.127Z,13.60
2019-03-30T23:24:21.178Z,13.50
2019-03-30T23:26:57.440Z,13.50
2019-03-30T23:29:31.977Z,13.40
2019-03-30T23:32:01.639Z,13.30
2019-03-30T23:34:34.189Z,13.20
2019-03-30T23:37:07.123Z,13.10
2019-03-30T23:39:51.588Z,13.00
2019-03-30T23:42:56.766Z,12.90
2019-03-30T23:45:30.081Z,12.80
2019-03-30T23:48:05.459Z,12.80
2019-03-30T23:50:37.531Z,12.70
2019-03-30T23:53:18.727Z,12.60
2019-03-30T23:55:55.856Z,12.50
2019-03-30T23:58:26.833Z,12.50
